sensor_id;sensor_type;location;lat;lon;timestamp;P1;durP1;ratioP1;P2;durP2;ratioP2
54919;SDS011;63804;53.120;8.764;2023-05-10T00:01:44;16.17;;;12.88;;
54919;SDS011;63804;53.120;8.764;2023-05-10T00:04:11;14.73;;;11.88;;
54919;SDS011;63804;53.120;8.764;2023-05-10T00:06:38;14.32;;;11.88;;
54919;SDS011;63804;53.120;8.764;2023-05-10T00:09:05;13.50;;;10.82;;
54919;SDS011;63804;53.120;8.764;2023-05-10T00:11:32;14.00;;;10.80;;
54919;SDS011;63804;53.120;8.764;2023-05-10T00:13:59;13.90;;;11.77;;
54919;SDS011;63804;53.120;8.764;2023-05-10T00:16:26;13.60;;;10.30;;
54919;SDS011;63804;53.120;8.764;2023-05-10T00:18:53;14.20;;;10.40;;
54919;SDS011;63804;53.120;8.764;2023-05-10T00:21:20;14.88;;;10.60;;
54919;SDS011;63804;53.120;8.764;2023-05-10T00:23:47;13.07;;;10.30;;
54919;SDS011;63804;53.120;8.764;2023-05-10T00:26:14;13.38;;;10.13;;
54919;SDS011;63804;53.120;8.764;2023-05-10T00:28:43;13.95;;;10.45;;
54919;SDS011;63804;53.120;8.764;2023-05-10T00:31:10;11.48;;;8.73;;
54919;SDS011;63804;53.120;8.764;2023-05-10T00:33:37;11.93;;;8.57;;
54919;SDS011;63804;53.120;8.764;2023-05-10T00:36:04;12.82;;;8.32;;
54919;SDS011;63804;53.120;8.764;2023-05-10T00:38:34;13.38;;;9.13;;
54919;SDS011;63804;53.120;8.764;2023-05-10T00:41:01;11.38;;;7.80;;
54919;SDS011;63804;53.120;8.764;2023-05-10T00:43:28;9.90;;;6.35;;
54919;SDS011;63804;53.120;8.764;2023-05-10T00:45:55;8.50;;;5.55;;
54919;SDS011;63804;53.120;8.764;2023-05-10T00:48:22;11.18;;;5.63;;
54919;SDS011;63804;53.120;8.764;2023-05-10T00:50:49;9.45;;;5.07;;
54919;SDS011;63804;53.120;8.764;2023-05-10T00:53:16;7.35;;;5.25;;
54919;SDS011;63804;53.120;8.764;2023-05-10T00:55:44;7.07;;;4.65;;
54919;SDS011;63804;53.120;8.764;2023-05-10T00:58:11;7.72;;;4.40;;
54919;SDS011;63804;53.120;8.764;2023-05-10T01:00:38;7.38;;;3.88;;
54919;SDS011;63804;53.120;8.764;2023-05-10T01:03:09;8.57;;;3.72;;
54919;SDS011;63804;53.120;8.764;2023-05-10T01:05:38;5.35;;;3.20;;
54919;SDS011;63804;53.120;8.764;2023-05-10T01:08:05;7.95;;;3.72;;
54919;SDS011;63804;53.120;8.764;2023-05-10T01:10:32;7.47;;;3.35;;
54919;SDS011;63804;53.120;8.764;2023-05-10T01:13:00;5.90;;;3.40;;
54919;SDS011;63804;53.120;8.764;2023-05-10T01:15:27;6.07;;;3.28;;
54919;SDS011;63804;53.120;8.764;2023-05-10T01:17:54;7.65;;;3.20;;
54919;SDS011;63804;53.120;8.764;2023-05-10T01:20:23;6.18;;;3.20;;
54919;SDS011;63804;53.120;8.764;2023-05-10T01:23:00;4.68;;;2.60;;
54919;SDS011;63804;53.120;8.764;2023-05-10T01:34:20;7.43;;;2.70;;
54919;SDS011;63804;53.120;8.764;2023-05-10T01:42:31;5.47;;;2.60;;
54919;SDS011;63804;53.120;8.764;2023-05-10T01:45:07;5.13;;;2.80;;
54919;SDS011;63804;53.120;8.764;2023-05-10T01:47:50;6.40;;;3.22;;
54919;SDS011;63804;53.120;8.764;2023-05-10T01:50:32;4.50;;;2.50;;
54919;SDS011;63804;53.120;8.764;2023-05-10T01:53:02;4.78;;;2.50;;
54919;SDS011;63804;53.120;8.764;2023-05-10T01:55:32;6.40;;;3.03;;
54919;SDS011;63804;53.120;8.764;2023-05-10T01:58:07;6.05;;;3.03;;
54919;SDS011;63804;53.120;8.764;2023-05-10T02:00:36;4.53;;;2.65;;
54919;SDS011;63804;53.120;8.764;2023-05-10T02:03:09;6.15;;;2.67;;
54919;SDS011;63804;53.120;8.764;2023-05-10T02:05:38;6.55;;;2.55;;
54919;SDS011;63804;53.120;8.764;2023-05-10T02:08:08;4.38;;;2.75;;
54919;SDS011;63804;53.120;8.764;2023-05-10T02:10:36;6.93;;;2.72;;
54919;SDS011;63804;53.120;8.764;2023-05-10T02:13:05;5.57;;;2.75;;
54919;SDS011;63804;53.120;8.764;2023-05-10T02:15:34;4.97;;;2.60;;
54919;SDS011;63804;53.120;8.764;2023-05-10T02:18:05;6.85;;;2.60;;
54919;SDS011;63804;53.120;8.764;2023-05-10T02:20:33;6.70;;;2.75;;
54919;SDS011;63804;53.120;8.764;2023-05-10T02:23:01;6.28;;;2.90;;
54919;SDS011;63804;53.120;8.764;2023-05-10T02:25:30;5.82;;;2.72;;
54919;SDS011;63804;53.120;8.764;2023-05-10T02:28:00;5.15;;;2.95;;
54919;SDS011;63804;53.120;8.764;2023-05-10T02:30:30;5.45;;;2.70;;
54919;SDS011;63804;53.120;8.764;2023-05-10T02:32:59;7.55;;;2.65;;
54919;SDS011;63804;53.120;8.764;2023-05-10T02:35:26;6.05;;;2.75;;
54919;SDS011;63804;53.120;8.764;2023-05-10T02:37:54;5.03;;;2.95;;
54919;SDS011;63804;53.120;8.764;2023-05-10T02:40:24;6.18;;;2.92;;
54919;SDS011;63804;53.120;8.764;2023-05-10T02:42:54;5.93;;;2.70;;
54919;SDS011;63804;53.120;8.764;2023-05-10T02:45:26;6.47;;;2.58;;
54919;SDS011;63804;53.120;8.764;2023-05-10T02:47:56;7.25;;;2.85;;
54919;SDS011;63804;53.120;8.764;2023-05-10T02:50:25;6.82;;;3.10;;
54919;SDS011;63804;53.120;8.764;2023-05-10T02:52:56;5.90;;;3.00;;
54919;SDS011;63804;53.120;8.764;2023-05-10T02:55:32;7.47;;;2.97;;
54919;SDS011;63804;53.120;8.764;2023-05-10T02:58:03;5.88;;;3.13;;
54919;SDS011;63804;53.120;8.764;2023-05-10T03:00:30;6.80;;;2.97;;
54919;SDS011;63804;53.120;8.764;2023-05-10T03:02:58;6.35;;;2.58;;
54919;SDS011;63804;53.120;8.764;2023-05-10T03:05:25;7.57;;;3.28;;
54919;SDS011;63804;53.120;8.764;2023-05-10T03:07:52;6.97;;;3.10;;
54919;SDS011;63804;53.120;8.764;2023-05-10T03:10:22;6.13;;;2.97;;
54919;SDS011;63804;53.120;8.764;2023-05-10T03:15:58;6.07;;;3.30;;
54919;SDS011;63804;53.120;8.764;2023-05-10T03:24:08;4.85;;;3.13;;
54919;SDS011;63804;53.120;8.764;2023-05-10T03:26:38;7.53;;;3.08;;
54919;SDS011;63804;53.120;8.764;2023-05-10T03:29:08;8.38;;;3.13;;
54919;SDS011;63804;53.120;8.764;2023-05-10T03:31:37;7.30;;;3.22;;
54919;SDS011;63804;53.120;8.764;2023-05-10T03:34:05;8.48;;;3.40;;
54919;SDS011;63804;53.120;8.764;2023-05-10T03:36:32;6.53;;;3.28;;
54919;SDS011;63804;53.120;8.764;2023-05-10T03:39:00;6.57;;;3.67;;
54919;SDS011;63804;53.120;8.764;2023-05-10T03:41:27;5.80;;;3.00;;
54919;SDS011;63804;53.120;8.764;2023-05-10T03:43:55;9.93;;;3.35;;
54919;SDS011;63804;53.120;8.764;2023-05-10T03:46:22;10.70;;;3.67;;
54919;SDS011;63804;53.120;8.764;2023-05-10T03:48:49;6.80;;;3.65;;
54919;SDS011;63804;53.120;8.764;2023-05-10T03:51:16;6.15;;;3.33;;
54919;SDS011;63804;53.120;8.764;2023-05-10T03:53:43;7.30;;;3.17;;
54919;SDS011;63804;53.120;8.764;2023-05-10T03:56:10;6.65;;;3.60;;
54919;SDS011;63804;53.120;8.764;2023-05-10T03:58:37;6.80;;;3.20;;
54919;SDS011;63804;53.120;8.764;2023-05-10T04:01:04;7.00;;;3.58;;
54919;SDS011;63804;53.120;8.764;2023-05-10T04:03:31;9.82;;;3.60;;
54919;SDS011;63804;53.120;8.764;2023-05-10T04:06:01;6.30;;;3.40;;
54919;SDS011;63804;53.120;8.764;2023-05-10T04:08:29;9.30;;;3.80;;
54919;SDS011;63804;53.120;8.764;2023-05-10T04:11:08;6.63;;;3.70;;
54919;SDS011;63804;53.120;8.764;2023-05-10T04:13:36;8.00;;;4.00;;
54919;SDS011;63804;53.120;8.764;2023-05-10T04:16:04;9.27;;;3.63;;
54919;SDS011;63804;53.120;8.764;2023-05-10T04:18:31;9.55;;;3.83;;
54919;SDS011;63804;53.120;8.764;2023-05-10T04:20:58;10.93;;;4.15;;
54919;SDS011;63804;53.120;8.764;2023-05-10T04:23:26;8.68;;;3.92;;
54919;SDS011;63804;53.120;8.764;2023-05-10T04:26:00;6.93;;;3.83;;
54919;SDS011;63804;53.120;8.764;2023-05-10T04:31:01;6.45;;;3.60;;
54919;SDS011;63804;53.120;8.764;2023-05-10T04:33:32;6.82;;;4.10;;
54919;SDS011;63804;53.120;8.764;2023-05-10T04:35:59;7.20;;;4.28;;
54919;SDS011;63804;53.120;8.764;2023-05-10T04:38:27;7.57;;;3.80;;
54919;SDS011;63804;53.120;8.764;2023-05-10T04:40:55;6.93;;;4.05;;
54919;SDS011;63804;53.120;8.764;2023-05-10T04:43:30;8.15;;;4.40;;
54919;SDS011;63804;53.120;8.764;2023-05-10T04:45:57;9.25;;;4.38;;
54919;SDS011;63804;53.120;8.764;2023-05-10T04:48:24;8.25;;;4.55;;
54919;SDS011;63804;53.120;8.764;2023-05-10T04:50:51;8.85;;;4.90;;
54919;SDS011;63804;53.120;8.764;2023-05-10T04:53:18;9.90;;;4.35;;
54919;SDS011;63804;53.120;8.764;2023-05-10T04:55:45;8.68;;;4.43;;
54919;SDS011;63804;53.120;8.764;2023-05-10T04:58:13;9.75;;;4.38;;
54919;SDS011;63804;53.120;8.764;2023-05-10T05:00:40;8.70;;;4.57;;
54919;SDS011;63804;53.120;8.764;2023-05-10T05:03:08;9.93;;;4.68;;
54919;SDS011;63804;53.120;8.764;2023-05-10T05:05:35;9.25;;;5.10;;
54919;SDS011;63804;53.120;8.764;2023-05-10T05:08:02;8.02;;;4.60;;
54919;SDS011;63804;53.120;8.764;2023-05-10T05:10:29;12.18;;;4.97;;
54919;SDS011;63804;53.120;8.764;2023-05-10T05:12:56;8.73;;;4.80;;
54919;SDS011;63804;53.120;8.764;2023-05-10T05:15:24;9.00;;;4.75;;
54919;SDS011;63804;53.120;8.764;2023-05-10T05:17:51;8.82;;;5.22;;
54919;SDS011;63804;53.120;8.764;2023-05-10T05:20:18;9.82;;;5.13;;
54919;SDS011;63804;53.120;8.764;2023-05-10T05:22:45;6.70;;;4.60;;
54919;SDS011;63804;53.120;8.764;2023-05-10T05:25:12;10.38;;;4.43;;
54919;SDS011;63804;53.120;8.764;2023-05-10T05:27:39;9.10;;;4.93;;
54919;SDS011;63804;53.120;8.764;2023-05-10T05:30:06;8.02;;;4.97;;
54919;SDS011;63804;53.120;8.764;2023-05-10T05:32:34;9.30;;;5.10;;
54919;SDS011;63804;53.120;8.764;2023-05-10T05:35:01;10.85;;;5.30;;
54919;SDS011;63804;53.120;8.764;2023-05-10T05:37:28;8.45;;;4.63;;
54919;SDS011;63804;53.120;8.764;2023-05-10T05:39:55;10.10;;;5.43;;
54919;SDS011;63804;53.120;8.764;2023-05-10T05:42:22;9.95;;;5.20;;
54919;SDS011;63804;53.120;8.764;2023-05-10T05:44:49;9.32;;;5.00;;
54919;SDS011;63804;53.120;8.764;2023-05-10T05:47:16;10.38;;;4.63;;
54919;SDS011;63804;53.120;8.764;2023-05-10T05:49:44;8.90;;;5.07;;
54919;SDS011;63804;53.120;8.764;2023-05-10T05:52:12;10.77;;;5.50;;
54919;SDS011;63804;53.120;8.764;2023-05-10T05:54:39;7.72;;;5.03;;
54919;SDS011;63804;53.120;8.764;2023-05-10T05:57:06;9.13;;;5.22;;
54919;SDS011;63804;53.120;8.764;2023-05-10T05:59:34;10.45;;;5.38;;
54919;SDS011;63804;53.120;8.764;2023-05-10T06:02:01;10.15;;;5.10;;
54919;SDS011;63804;53.120;8.764;2023-05-10T06:04:28;7.53;;;4.72;;
54919;SDS011;63804;53.120;8.764;2023-05-10T06:06:55;9.13;;;5.85;;
54919;SDS011;63804;53.120;8.764;2023-05-10T06:09:22;8.65;;;5.90;;
54919;SDS011;63804;53.120;8.764;2023-05-10T06:11:51;12.27;;;5.80;;
54919;SDS011;63804;53.120;8.764;2023-05-10T06:14:20;11.30;;;5.90;;
54919;SDS011;63804;53.120;8.764;2023-05-10T06:16:47;8.48;;;5.57;;
54919;SDS011;63804;53.120;8.764;2023-05-10T06:19:14;9.35;;;5.65;;
54919;SDS011;63804;53.120;8.764;2023-05-10T06:21:41;10.38;;;5.80;;
54919;SDS011;63804;53.120;8.764;2023-05-10T06:24:08;9.05;;;5.63;;
54919;SDS011;63804;53.120;8.764;2023-05-10T06:26:35;9.20;;;5.97;;
54919;SDS011;63804;53.120;8.764;2023-05-10T06:29:02;9.93;;;5.57;;
54919;SDS011;63804;53.120;8.764;2023-05-10T06:31:29;10.95;;;6.90;;
54919;SDS011;63804;53.120;8.764;2023-05-10T06:33:56;14.30;;;7.30;;
54919;SDS011;63804;53.120;8.764;2023-05-10T06:36:24;11.50;;;6.90;;
54919;SDS011;63804;53.120;8.764;2023-05-10T06:38:52;10.80;;;6.63;;
54919;SDS011;63804;53.120;8.764;2023-05-10T06:41:20;14.25;;;6.05;;
54919;SDS011;63804;53.120;8.764;2023-05-10T06:43:50;11.43;;;5.65;;
54919;SDS011;63804;53.120;8.764;2023-05-10T06:46:17;10.20;;;6.30;;
54919;SDS011;63804;53.120;8.764;2023-05-10T06:48:44;12.85;;;6.50;;
54919;SDS011;63804;53.120;8.764;2023-05-10T06:51:11;12.65;;;6.75;;
54919;SDS011;63804;53.120;8.764;2023-05-10T06:53:38;10.18;;;6.18;;
54919;SDS011;63804;53.120;8.764;2023-05-10T06:56:05;10.85;;;6.28;;
54919;SDS011;63804;53.120;8.764;2023-05-10T06:58:32;13.30;;;6.95;;
54919;SDS011;63804;53.120;8.764;2023-05-10T07:01:03;12.18;;;6.38;;
54919;SDS011;63804;53.120;8.764;2023-05-10T07:03:31;12.38;;;6.70;;
54919;SDS011;63804;53.120;8.764;2023-05-10T07:06:01;10.65;;;6.93;;
54919;SDS011;63804;53.120;8.764;2023-05-10T07:08:30;11.52;;;7.38;;
54919;SDS011;63804;53.120;8.764;2023-05-10T07:11:02;9.88;;;6.35;;
54919;SDS011;63804;53.120;8.764;2023-05-10T07:13:30;11.68;;;7.20;;
54919;SDS011;63804;53.120;8.764;2023-05-10T07:15:59;10.32;;;6.57;;
54919;SDS011;63804;53.120;8.764;2023-05-10T07:18:27;9.25;;;6.35;;
54919;SDS011;63804;53.120;8.764;2023-05-10T07:20:54;13.10;;;6.47;;
54919;SDS011;63804;53.120;8.764;2023-05-10T07:23:21;10.48;;;6.32;;
54919;SDS011;63804;53.120;8.764;2023-05-10T07:25:48;9.80;;;6.50;;
54919;SDS011;63804;53.120;8.764;2023-05-10T07:28:18;11.15;;;7.07;;
54919;SDS011;63804;53.120;8.764;2023-05-10T07:30:45;12.02;;;7.00;;
54919;SDS011;63804;53.120;8.764;2023-05-10T07:33:13;12.23;;;6.78;;
54919;SDS011;63804;53.120;8.764;2023-05-10T07:35:41;10.82;;;6.07;;
54919;SDS011;63804;53.120;8.764;2023-05-10T07:38:09;12.68;;;6.75;;
54919;SDS011;63804;53.120;8.764;2023-05-10T07:40:38;9.27;;;6.28;;
54919;SDS011;63804;53.120;8.764;2023-05-10T07:43:05;10.07;;;6.53;;
54919;SDS011;63804;53.120;8.764;2023-05-10T07:45:33;9.02;;;5.68;;
54919;SDS011;63804;53.120;8.764;2023-05-10T07:48:00;8.90;;;5.40;;
54919;SDS011;63804;53.120;8.764;2023-05-10T07:50:27;8.23;;;5.00;;
54919;SDS011;63804;53.120;8.764;2023-05-10T07:52:54;8.30;;;5.13;;
54919;SDS011;63804;53.120;8.764;2023-05-10T07:55:21;7.57;;;4.93;;
54919;SDS011;63804;53.120;8.764;2023-05-10T07:57:48;5.97;;;4.03;;
54919;SDS011;63804;53.120;8.764;2023-05-10T08:00:19;6.50;;;3.63;;
54919;SDS011;63804;53.120;8.764;2023-05-10T08:02:47;5.78;;;3.88;;
54919;SDS011;63804;53.120;8.764;2023-05-10T08:05:14;5.93;;;3.22;;
54919;SDS011;63804;53.120;8.764;2023-05-10T08:07:42;4.63;;;3.05;;
54919;SDS011;63804;53.120;8.764;2023-05-10T08:10:09;5.38;;;3.30;;
54919;SDS011;63804;53.120;8.764;2023-05-10T08:12:37;6.22;;;3.30;;
54919;SDS011;63804;53.120;8.764;2023-05-10T08:15:05;5.93;;;3.40;;
54919;SDS011;63804;53.120;8.764;2023-05-10T08:17:33;5.35;;;3.33;;
54919;SDS011;63804;53.120;8.764;2023-05-10T08:20:00;5.13;;;3.10;;
54919;SDS011;63804;53.120;8.764;2023-05-10T08:22:28;4.30;;;3.20;;
54919;SDS011;63804;53.120;8.764;2023-05-10T08:24:55;5.38;;;2.95;;
54919;SDS011;63804;53.120;8.764;2023-05-10T08:27:21;8.88;;;3.45;;
54919;SDS011;63804;53.120;8.764;2023-05-10T08:29:48;5.55;;;3.05;;
54919;SDS011;63804;53.120;8.764;2023-05-10T08:32:16;5.38;;;3.25;;
54919;SDS011;63804;53.120;8.764;2023-05-10T08:34:44;4.68;;;3.17;;
54919;SDS011;63804;53.120;8.764;2023-05-10T08:37:11;5.25;;;3.38;;
54919;SDS011;63804;53.120;8.764;2023-05-10T08:39:40;4.68;;;3.13;;
54919;SDS011;63804;53.120;8.764;2023-05-10T08:42:07;6.30;;;3.22;;
54919;SDS011;63804;53.120;8.764;2023-05-10T08:44:36;4.90;;;3.25;;
54919;SDS011;63804;53.120;8.764;2023-05-10T08:47:06;9.93;;;3.53;;
54919;SDS011;63804;53.120;8.764;2023-05-10T08:49:34;5.40;;;3.55;;
54919;SDS011;63804;53.120;8.764;2023-05-10T08:52:02;4.13;;;2.92;;
54919;SDS011;63804;53.120;8.764;2023-05-10T08:54:31;4.63;;;2.78;;
54919;SDS011;63804;53.120;8.764;2023-05-10T08:56:59;3.70;;;2.55;;
54919;SDS011;63804;53.120;8.764;2023-05-10T08:59:26;4.55;;;2.25;;
54919;SDS011;63804;53.120;8.764;2023-05-10T09:01:59;4.32;;;2.08;;
54919;SDS011;63804;53.120;8.764;2023-05-10T09:04:27;3.83;;;2.00;;
54919;SDS011;63804;53.120;8.764;2023-05-10T09:06:56;3.13;;;1.70;;
54919;SDS011;63804;53.120;8.764;2023-05-10T09:09:23;3.58;;;1.70;;
54919;SDS011;63804;53.120;8.764;2023-05-10T09:11:52;3.67;;;2.20;;
54919;SDS011;63804;53.120;8.764;2023-05-10T09:14:20;3.90;;;2.10;;
54919;SDS011;63804;53.120;8.764;2023-05-10T09:16:48;3.53;;;2.10;;
54919;SDS011;63804;53.120;8.764;2023-05-10T09:19:16;2.40;;;1.80;;
54919;SDS011;63804;53.120;8.764;2023-05-10T09:21:43;2.55;;;1.75;;
54919;SDS011;63804;53.120;8.764;2023-05-10T09:24:10;2.65;;;1.80;;
54919;SDS011;63804;53.120;8.764;2023-05-10T09:26:45;2.88;;;1.75;;
54919;SDS011;63804;53.120;8.764;2023-05-10T09:29:14;3.13;;;1.65;;
54919;SDS011;63804;53.120;8.764;2023-05-10T09:31:44;4.55;;;1.80;;
54919;SDS011;63804;53.120;8.764;2023-05-10T09:34:20;4.25;;;1.60;;
54919;SDS011;63804;53.120;8.764;2023-05-10T09:37:00;3.17;;;1.80;;
54919;SDS011;63804;53.120;8.764;2023-05-10T09:39:29;2.50;;;1.63;;
54919;SDS011;63804;53.120;8.764;2023-05-10T09:42:02;3.75;;;1.90;;
54919;SDS011;63804;53.120;8.764;2023-05-10T09:44:33;4.32;;;2.25;;
54919;SDS011;63804;53.120;8.764;2023-05-10T09:47:01;3.65;;;2.25;;
54919;SDS011;63804;53.120;8.764;2023-05-10T09:49:29;5.63;;;2.85;;
54919;SDS011;63804;53.120;8.764;2023-05-10T09:52:00;4.40;;;3.10;;
54919;SDS011;63804;53.120;8.764;2023-05-10T09:54:29;4.83;;;2.80;;
54919;SDS011;63804;53.120;8.764;2023-05-10T09:56:57;5.30;;;3.60;;
54919;SDS011;63804;53.120;8.764;2023-05-10T09:59:27;4.93;;;3.40;;
54919;SDS011;63804;53.120;8.764;2023-05-10T10:01:56;5.80;;;3.33;;
54919;SDS011;63804;53.120;8.764;2023-05-10T10:04:25;4.97;;;3.38;;
54919;SDS011;63804;53.120;8.764;2023-05-10T10:07:02;4.72;;;3.22;;
54919;SDS011;63804;53.120;8.764;2023-05-10T10:09:30;5.47;;;3.08;;
54919;SDS011;63804;53.120;8.764;2023-05-10T10:11:59;5.30;;;3.15;;
54919;SDS011;63804;53.120;8.764;2023-05-10T10:14:27;7.80;;;3.67;;
54919;SDS011;63804;53.120;8.764;2023-05-10T10:16:55;6.03;;;4.00;;
54919;SDS011;63804;53.120;8.764;2023-05-10T10:19:34;7.47;;;4.28;;
54919;SDS011;63804;53.120;8.764;2023-05-10T10:22:03;7.10;;;4.07;;
54919;SDS011;63804;53.120;8.764;2023-05-10T10:24:30;5.20;;;3.65;;
54919;SDS011;63804;53.120;8.764;2023-05-10T10:26:59;5.50;;;3.13;;
54919;SDS011;63804;53.120;8.764;2023-05-10T10:29:47;3.42;;;3.00;;
54919;SDS011;63804;53.120;8.764;2023-05-10T10:32:49;5.20;;;2.70;;
54919;SDS011;63804;53.120;8.764;2023-05-10T10:35:22;3.22;;;2.30;;
54919;SDS011;63804;53.120;8.764;2023-05-10T10:37:50;2.75;;;2.00;;
54919;SDS011;63804;53.120;8.764;2023-05-10T10:40:24;3.53;;;2.13;;
54919;SDS011;63804;53.120;8.764;2023-05-10T10:48:47;3.33;;;2.10;;
54919;SDS011;63804;53.120;8.764;2023-05-10T10:51:17;5.53;;;2.75;;
54919;SDS011;63804;53.120;8.764;2023-05-10T10:53:44;5.65;;;2.80;;
54919;SDS011;63804;53.120;8.764;2023-05-10T10:56:14;6.57;;;3.42;;
54919;SDS011;63804;53.120;8.764;2023-05-10T10:58:42;5.65;;;3.22;;
54919;SDS011;63804;53.120;8.764;2023-05-10T11:01:18;5.47;;;3.08;;
54919;SDS011;63804;53.120;8.764;2023-05-10T11:06:28;4.57;;;2.60;;
54919;SDS011;63804;53.120;8.764;2023-05-10T11:08:58;3.15;;;2.80;;
54919;SDS011;63804;53.120;8.764;2023-05-10T11:11:26;5.78;;;3.22;;
54919;SDS011;63804;53.120;8.764;2023-05-10T11:13:53;4.38;;;3.10;;
54919;SDS011;63804;53.120;8.764;2023-05-10T11:16:35;5.65;;;3.33;;
54919;SDS011;63804;53.120;8.764;2023-05-10T11:19:11;4.32;;;3.28;;
54919;SDS011;63804;53.120;8.764;2023-05-10T11:22:13;4.35;;;3.15;;
54919;SDS011;63804;53.120;8.764;2023-05-10T11:24:32;4.68;;;2.95;;
54919;SDS011;63804;53.120;8.764;2023-05-10T11:27:00;6.00;;;3.15;;
54919;SDS011;63804;53.120;8.764;2023-05-10T11:29:27;4.30;;;2.90;;
54919;SDS011;63804;53.120;8.764;2023-05-10T11:31:56;4.93;;;3.50;;
54919;SDS011;63804;53.120;8.764;2023-05-10T11:34:25;4.47;;;3.25;;
54919;SDS011;63804;53.120;8.764;2023-05-10T11:36:55;3.92;;;3.13;;
54919;SDS011;63804;53.120;8.764;2023-05-10T11:39:26;3.08;;;2.65;;
54919;SDS011;63804;53.120;8.764;2023-05-10T11:41:54;4.03;;;2.00;;
54919;SDS011;63804;53.120;8.764;2023-05-10T11:44:22;2.17;;;1.65;;
54919;SDS011;63804;53.120;8.764;2023-05-10T11:46:49;2.03;;;1.17;;
54919;SDS011;63804;53.120;8.764;2023-05-10T11:49:17;1.23;;;0.80;;
54919;SDS011;63804;53.120;8.764;2023-05-10T11:51:44;1.77;;;0.60;;
54919;SDS011;63804;53.120;8.764;2023-05-10T11:54:11;1.25;;;0.50;;
54919;SDS011;63804;53.120;8.764;2023-05-10T11:56:39;0.60;;;0.40;;
54919;SDS011;63804;53.120;8.764;2023-05-10T11:59:06;0.68;;;0.40;;
54919;SDS011;63804;53.120;8.764;2023-05-10T12:01:35;1.35;;;0.43;;
54919;SDS011;63804;53.120;8.764;2023-05-10T12:04:02;1.67;;;0.57;;
54919;SDS011;63804;53.120;8.764;2023-05-10T12:06:31;2.28;;;0.70;;
54919;SDS011;63804;53.120;8.764;2023-05-10T12:09:01;1.00;;;0.60;;
54919;SDS011;63804;53.120;8.764;2023-05-10T12:11:36;0.73;;;0.52;;
54919;SDS011;63804;53.120;8.764;2023-05-10T12:14:08;0.98;;;0.80;;
54919;SDS011;63804;53.120;8.764;2023-05-10T12:16:35;1.55;;;0.70;;
54919;SDS011;63804;53.120;8.764;2023-05-10T12:19:02;1.25;;;0.77;;
54919;SDS011;63804;53.120;8.764;2023-05-10T12:21:29;1.23;;;0.63;;
54919;SDS011;63804;53.120;8.764;2023-05-10T12:24:02;1.92;;;0.80;;
54919;SDS011;63804;53.120;8.764;2023-05-10T12:26:32;1.45;;;0.88;;
54919;SDS011;63804;53.120;8.764;2023-05-10T12:29:14;0.63;;;0.60;;
54919;SDS011;63804;53.120;8.764;2023-05-10T12:31:49;22.30;;;17.88;;
54919;SDS011;63804;53.120;8.764;2023-05-10T12:34:30;1.10;;;0.68;;
54919;SDS011;63804;53.120;8.764;2023-05-10T12:36:58;1.25;;;0.63;;
54919;SDS011;63804;53.120;8.764;2023-05-10T12:39:25;0.70;;;0.60;;
54919;SDS011;63804;53.120;8.764;2023-05-10T12:41:52;1.33;;;0.70;;
54919;SDS011;63804;53.120;8.764;2023-05-10T12:44:19;4.47;;;0.60;;
54919;SDS011;63804;53.120;8.764;2023-05-10T12:46:47;1.20;;;0.70;;
54919;SDS011;63804;53.120;8.764;2023-05-10T12:49:14;1.55;;;0.98;;
54919;SDS011;63804;53.120;8.764;2023-05-10T12:51:41;2.28;;;1.10;;
54919;SDS011;63804;53.120;8.764;2023-05-10T12:54:08;3.65;;;1.50;;
54919;SDS011;63804;53.120;8.764;2023-05-10T12:56:35;1.60;;;1.48;;
54919;SDS011;63804;53.120;8.764;2023-05-10T12:59:03;1.70;;;1.08;;
54919;SDS011;63804;53.120;8.764;2023-05-10T13:01:30;2.38;;;1.60;;
54919;SDS011;63804;53.120;8.764;2023-05-10T13:03:57;2.90;;;1.58;;
54919;SDS011;63804;53.120;8.764;2023-05-10T13:06:26;3.22;;;1.90;;
54919;SDS011;63804;53.120;8.764;2023-05-10T13:08:53;3.83;;;2.30;;
54919;SDS011;63804;53.120;8.764;2023-05-10T13:11:20;5.50;;;3.10;;
54919;SDS011;63804;53.120;8.764;2023-05-10T13:13:48;5.90;;;3.50;;
54919;SDS011;63804;53.120;8.764;2023-05-10T13:16:15;6.38;;;3.88;;
54919;SDS011;63804;53.120;8.764;2023-05-10T13:18:42;7.18;;;4.00;;
54919;SDS011;63804;53.120;8.764;2023-05-10T13:21:09;6.50;;;3.85;;
54919;SDS011;63804;53.120;8.764;2023-05-10T13:23:36;5.97;;;3.90;;
54919;SDS011;63804;53.120;8.764;2023-05-10T13:26:03;6.97;;;3.85;;
54919;SDS011;63804;53.120;8.764;2023-05-10T13:28:30;7.53;;;3.65;;
54919;SDS011;63804;53.120;8.764;2023-05-10T13:30:57;6.25;;;3.85;;
54919;SDS011;63804;53.120;8.764;2023-05-10T13:33:26;6.25;;;3.42;;
54919;SDS011;63804;53.120;8.764;2023-05-10T13:35:53;5.72;;;3.67;;
54919;SDS011;63804;53.120;8.764;2023-05-10T13:38:21;7.05;;;3.55;;
54919;SDS011;63804;53.120;8.764;2023-05-10T13:40:48;9.13;;;3.53;;
54919;SDS011;63804;53.120;8.764;2023-05-10T13:43:19;6.85;;;3.17;;
54919;SDS011;63804;53.120;8.764;2023-05-10T13:45:46;7.63;;;3.65;;
54919;SDS011;63804;53.120;8.764;2023-05-10T13:48:13;8.18;;;3.47;;
54919;SDS011;63804;53.120;8.764;2023-05-10T13:50:40;6.13;;;3.30;;
54919;SDS011;63804;53.120;8.764;2023-05-10T13:53:07;6.45;;;3.25;;
54919;SDS011;63804;53.120;8.764;2023-05-10T13:55:34;6.57;;;3.03;;
54919;SDS011;63804;53.120;8.764;2023-05-10T13:58:02;8.48;;;3.60;;
54919;SDS011;63804;53.120;8.764;2023-05-10T14:00:29;7.45;;;3.67;;
54919;SDS011;63804;53.120;8.764;2023-05-10T14:02:56;6.43;;;3.10;;
54919;SDS011;63804;53.120;8.764;2023-05-10T14:05:23;6.07;;;3.28;;
54919;SDS011;63804;53.120;8.764;2023-05-10T14:07:52;5.15;;;3.10;;
54919;SDS011;63804;53.120;8.764;2023-05-10T14:10:19;7.35;;;3.78;;
54919;SDS011;63804;53.120;8.764;2023-05-10T14:12:46;5.45;;;3.13;;
54919;SDS011;63804;53.120;8.764;2023-05-10T14:15:13;10.60;;;3.70;;
54919;SDS011;63804;53.120;8.764;2023-05-10T14:17:41;7.88;;;3.20;;
54919;SDS011;63804;53.120;8.764;2023-05-10T14:20:08;9.20;;;3.40;;
54919;SDS011;63804;53.120;8.764;2023-05-10T14:22:35;6.32;;;3.55;;
54919;SDS011;63804;53.120;8.764;2023-05-10T14:25:02;4.43;;;3.13;;
54919;SDS011;63804;53.120;8.764;2023-05-10T14:27:29;8.80;;;3.95;;
54919;SDS011;63804;53.120;8.764;2023-05-10T14:29:57;6.25;;;3.60;;
54919;SDS011;63804;53.120;8.764;2023-05-10T14:32:24;6.25;;;3.70;;
54919;SDS011;63804;53.120;8.764;2023-05-10T14:34:51;5.35;;;3.42;;
54919;SDS011;63804;53.120;8.764;2023-05-10T14:37:18;5.78;;;3.75;;
54919;SDS011;63804;53.120;8.764;2023-05-10T14:39:45;5.93;;;2.80;;
54919;SDS011;63804;53.120;8.764;2023-05-10T14:42:12;3.60;;;2.15;;
54919;SDS011;63804;53.120;8.764;2023-05-10T14:44:39;3.35;;;1.88;;
54919;SDS011;63804;53.120;8.764;2023-05-10T14:47:06;4.10;;;1.90;;
54919;SDS011;63804;53.120;8.764;2023-05-10T14:49:36;4.00;;;1.50;;
54919;SDS011;63804;53.120;8.764;2023-05-10T14:52:03;3.28;;;1.60;;
54919;SDS011;63804;53.120;8.764;2023-05-10T14:54:30;2.85;;;1.60;;
54919;SDS011;63804;53.120;8.764;2023-05-10T14:57:00;2.30;;;1.58;;
54919;SDS011;63804;53.120;8.764;2023-05-10T14:59:27;4.70;;;1.90;;
54919;SDS011;63804;53.120;8.764;2023-05-10T15:01:54;4.70;;;2.10;;
54919;SDS011;63804;53.120;8.764;2023-05-10T15:04:22;2.30;;;1.60;;
54919;SDS011;63804;53.120;8.764;2023-05-10T15:06:51;3.42;;;1.75;;
54919;SDS011;63804;53.120;8.764;2023-05-10T15:09:18;3.20;;;1.90;;
54919;SDS011;63804;53.120;8.764;2023-05-10T15:11:45;2.90;;;1.90;;
54919;SDS011;63804;53.120;8.764;2023-05-10T15:14:12;4.97;;;2.70;;
54919;SDS011;63804;53.120;8.764;2023-05-10T15:16:39;5.30;;;2.50;;
54919;SDS011;63804;53.120;8.764;2023-05-10T15:19:06;5.18;;;2.60;;
54919;SDS011;63804;53.120;8.764;2023-05-10T15:21:33;4.75;;;2.70;;
54919;SDS011;63804;53.120;8.764;2023-05-10T15:24:05;4.85;;;2.45;;
54919;SDS011;63804;53.120;8.764;2023-05-10T15:26:32;3.60;;;2.13;;
54919;SDS011;63804;53.120;8.764;2023-05-10T15:28:59;4.18;;;2.08;;